sensor_id;sensor_type;location;lat;lon;timestamp;pressure;altitude;pressure_sealevel;temperature;humidity
13387;BME280;6763;48.524;9.044;2022-12-07T00:00:54;97830.94;;;9.18;53.44
13387;BME280;6763;48.524;9.044;2022-12-07T00:03:19;97824.16;;;9.13;53.53
13387;BME280;6763;48.524;9.044;2022-12-07T00:05:44;97829.28;;;9.14;53.75
13387;BME280;6763;48.524;9.044;2022-12-07T00:08:10;97823.25;;;9.14;53.80
13387;BME280;6763;48.524;9.044;2022-12-07T00:10:35;97826.66;;;9.16;54.10
13387;BME280;6763;48.524;9.044;2022-12-07T00:13:00;97820.69;;;9.15;53.75
13387;BME280;6763;48.524;9.044;2022-12-07T00:15:26;97818.03;;;9.18;53.95
13387;BME280;6763;48.524;9.044;2022-12-07T00:17:51;97822.34;;;9.19;54.22
13387;BME280;6763;48.524;9.044;2022-12-07T00:20:16;97822.31;;;9.21;54.33
13387;BME280;6763;48.524;9.044;2022-12-07T00:22:42;97824.88;;;9.22;53.91
13387;BME280;6763;48.524;9.044;2022-12-07T00:25:07;97813.69;;;9.22;54.01
13387;BME280;6763;48.524;9.044;2022-12-07T00:27:32;97821.41;;;9.25;53.70
13387;BME280;6763;48.524;9.044;2022-12-07T00:29:58;97815.41;;;9.23;54.06
13387;BME280;6763;48.524;9.044;2022-12-07T00:32:23;97811.97;;;9.22;53.75
13387;BME280;6763;48.524;9.044;2022-12-07T00:34:48;97811.94;;;9.24;54.06
13387;BME280;6763;48.524;9.044;2022-12-07T00:37:14;97817.97;;;9.24;53.93
13387;BME280;6763;48.524;9.044;2022-12-07T00:39:39;97815.38;;;9.26;54.08
13387;BME280;6763;48.524;9.044;2022-12-07T00:42:04;97815.34;;;9.27;53.71
13387;BME280;6763;48.524;9.044;2022-12-07T00:44:30;97815.34;;;9.27;54.42
13387;BME280;6763;48.524;9.044;2022-12-07T00:46:55;97810.19;;;9.27;54.41
13387;BME280;6763;48.524;9.044;2022-12-07T00:49:21;97811.88;;;9.30;54.00
13387;BME280;6763;48.524;9.044;2022-12-07T00:51:48;97813.59;;;9.31;54.00
13387;BME280;6763;48.524;9.044;2022-12-07T00:54:13;97811.00;;;9.31;54.17
13387;BME280;6763;48.524;9.044;2022-12-07T00:56:38;97807.56;;;9.30;53.78
13387;BME280;6763;48.524;9.044;2022-12-07T00:59:04;97811.00;;;9.31;54.05
13387;BME280;6763;48.524;9.044;2022-12-07T01:01:33;97809.28;;;9.30;54.11
13387;BME280;6763;48.524;9.044;2022-12-07T01:03:59;97808.47;;;9.26;53.95
13387;BME280;6763;48.524;9.044;2022-12-07T01:06:26;97806.78;;;9.25;54.21
13387;BME280;6763;48.524;9.044;2022-12-07T01:08:52;97805.91;;;9.23;54.32
13387;BME280;6763;48.524;9.044;2022-12-07T01:11:21;97804.22;;;9.22;53.75
13387;BME280;6763;48.524;9.044;2022-12-07T01:13:46;97804.25;;;9.19;53.86
13387;BME280;6763;48.524;9.044;2022-12-07T01:16:15;97798.31;;;9.14;54.57
13387;BME280;6763;48.524;9.044;2022-12-07T01:18:41;97806.88;;;9.16;54.42
13387;BME280;6763;48.524;9.044;2022-12-07T01:21:10;97806.88;;;9.16;54.84
13387;BME280;6763;48.524;9.044;2022-12-07T01:23:36;97806.06;;;9.11;54.09
13387;BME280;6763;48.524;9.044;2022-12-07T01:26:09;97812.06;;;9.13;54.66
13387;BME280;6763;48.524;9.044;2022-12-07T01:28:34;97816.41;;;9.13;54.63
13387;BME280;6763;48.524;9.044;2022-12-07T01:31:04;97818.09;;;9.14;54.18
13387;BME280;6763;48.524;9.044;2022-12-07T01:33:32;97816.38;;;9.14;54.58
13387;BME280;6763;48.524;9.044;2022-12-07T01:38:28;97823.25;;;9.14;54.88
13387;BME280;6763;48.524;9.044;2022-12-07T01:40:55;97820.69;;;9.14;54.97
13387;BME280;6763;48.524;9.044;2022-12-07T01:43:22;97822.41;;;9.13;54.57
13387;BME280;6763;48.524;9.044;2022-12-07T01:45:48;97823.28;;;9.12;54.99
13387;BME280;6763;48.524;9.044;2022-12-07T01:48:16;97819.00;;;9.13;54.68
13387;BME280;6763;48.524;9.044;2022-12-07T01:50:44;97819.81;;;9.13;54.61
13387;BME280;6763;48.524;9.044;2022-12-07T01:53:11;97820.69;;;9.14;54.69
13387;BME280;6763;48.524;9.044;2022-12-07T01:55:41;97810.34;;;9.14;54.65
13387;BME280;6763;48.524;9.044;2022-12-07T01:58:07;97819.00;;;9.13;54.87
13387;BME280;6763;48.524;9.044;2022-12-07T02:00:36;97815.50;;;9.15;55.02
13387;BME280;6763;48.524;9.044;2022-12-07T02:03:09;97820.69;;;9.15;54.57
13387;BME280;6763;48.524;9.044;2022-12-07T02:05:37;97826.66;;;9.16;54.63
13387;BME280;6763;48.524;9.044;2022-12-07T02:08:03;97829.25;;;9.17;55.02
13387;BME280;6763;48.524;9.044;2022-12-07T02:10:30;97830.13;;;9.16;55.07
13387;BME280;6763;48.524;9.044;2022-12-07T02:12:59;97823.25;;;9.15;54.75
13387;BME280;6763;48.524;9.044;2022-12-07T02:15:37;97823.25;;;9.15;54.99
13387;BME280;6763;48.524;9.044;2022-12-07T02:20:39;97829.28;;;9.14;54.51
13387;BME280;6763;48.524;9.044;2022-12-07T02:23:55;97828.47;;;9.12;54.56
13387;BME280;6763;48.524;9.044;2022-12-07T02:29:27;97823.25;;;9.15;55.07
13387;BME280;6763;48.524;9.044;2022-12-07T02:37:33;97821.47;;;9.20;54.52
13387;BME280;6763;48.524;9.044;2022-12-07T02:40:11;97824.88;;;9.22;54.59
13387;BME280;6763;48.524;9.044;2022-12-07T02:42:44;97825.75;;;9.23;55.06
13387;BME280;6763;48.524;9.044;2022-12-07T02:45:10;97825.72;;;9.26;54.55
13387;BME280;6763;48.524;9.044;2022-12-07T02:47:37;97828.25;;;9.27;55.21
13387;BME280;6763;48.524;9.044;2022-12-07T02:50:05;97834.25;;;9.29;54.77
13387;BME280;6763;48.524;9.044;2022-12-07T02:52:31;97824.81;;;9.27;54.03
13387;BME280;6763;48.524;9.044;2022-12-07T02:54:56;97820.56;;;9.23;54.23
13387;BME280;6763;48.524;9.044;2022-12-07T03:02:41;97826.97;;;8.92;53.84
13387;BME280;6763;48.524;9.044;2022-12-07T03:05:37;97832.41;;;8.67;52.90
13387;BME280;6763;48.524;9.044;2022-12-07T03:10:59;97822.38;;;8.40;54.01
13387;BME280;6763;48.524;9.044;2022-12-07T03:13:33;97824.13;;;8.34;54.25
13387;BME280;6763;48.524;9.044;2022-12-07T03:16:27;97823.31;;;8.32;54.75
13387;BME280;6763;48.524;9.044;2022-12-07T03:18:57;97813.88;;;8.26;54.63
13387;BME280;6763;48.524;9.044;2022-12-07T03:21:45;97816.47;;;8.23;54.58
13387;BME280;6763;48.524;9.044;2022-12-07T03:24:14;97807.03;;;8.22;54.64
13387;BME280;6763;48.524;9.044;2022-12-07T03:26:44;97813.94;;;8.19;54.72
13387;BME280;6763;48.524;9.044;2022-12-07T03:29:25;97808.84;;;8.14;54.75
13387;BME280;6763;48.524;9.044;2022-12-07T03:32:05;97810.56;;;8.10;55.05
13387;BME280;6763;48.524;9.044;2022-12-07T03:34:47;97809.72;;;8.07;54.49
13387;BME280;6763;48.524;9.044;2022-12-07T03:37:38;97808.03;;;8.04;54.61
13387;BME280;6763;48.524;9.044;2022-12-07T03:40:33;97802.88;;;8.06;54.72
13387;BME280;6763;48.524;9.044;2022-12-07T03:43:00;97796.88;;;8.02;54.86
13387;BME280;6763;48.524;9.044;2022-12-07T03:46:24;97803.75;;;8.05;54.76
13387;BME280;6763;48.524;9.044;2022-12-07T03:48:36;97796.03;;;8.02;54.65
13387;BME280;6763;48.524;9.044;2022-12-07T03:51:12;97803.75;;;8.02;54.70
13387;BME280;6763;48.524;9.044;2022-12-07T03:53:44;97808.94;;;8.00;54.95
13387;BME280;6763;48.524;9.044;2022-12-07T03:56:11;97800.38;;;7.94;55.05
13387;BME280;6763;48.524;9.044;2022-12-07T03:58:38;97807.25;;;7.95;55.23
13387;BME280;6763;48.524;9.044;2022-12-07T04:01:04;97803.00;;;7.92;55.13
13387;BME280;6763;48.524;9.044;2022-12-07T04:03:30;97802.16;;;7.89;55.09
13387;BME280;6763;48.524;9.044;2022-12-07T04:05:55;97809.88;;;7.90;55.57
13387;BME280;6763;48.524;9.044;2022-12-07T04:08:20;97809.03;;;7.88;55.51
13387;BME280;6763;48.524;9.044;2022-12-07T04:10:46;97811.59;;;7.90;55.45
13387;BME280;6763;48.524;9.044;2022-12-07T04:13:11;97807.31;;;7.87;55.67
13387;BME280;6763;48.524;9.044;2022-12-07T04:15:37;97809.91;;;7.84;55.86
13387;BME280;6763;48.524;9.044;2022-12-07T04:18:02;97800.47;;;7.85;55.66
13387;BME280;6763;48.524;9.044;2022-12-07T04:20:27;97803.91;;;7.84;55.98
13387;BME280;6763;48.524;9.044;2022-12-07T04:22:53;97802.22;;;7.83;56.02
13387;BME280;6763;48.524;9.044;2022-12-07T04:25:18;97801.34;;;7.81;55.79
13387;BME280;6763;48.524;9.044;2022-12-07T04:27:43;97794.50;;;7.78;55.98
13387;BME280;6763;48.524;9.044;2022-12-07T04:30:09;97794.50;;;7.78;56.15
13387;BME280;6763;48.524;9.044;2022-12-07T04:32:37;97790.22;;;7.76;56.36
13387;BME280;6763;48.524;9.044;2022-12-07T04:35:05;97796.22;;;7.76;56.55
13387;BME280;6763;48.524;9.044;2022-12-07T04:37:31;97786.81;;;7.75;56.78
13387;BME280;6763;48.524;9.044;2022-12-07T04:39:56;97792.84;;;7.71;56.38
13387;BME280;6763;48.524;9.044;2022-12-07T04:42:21;97796.28;;;7.72;56.66
13387;BME280;6763;48.524;9.044;2022-12-07T04:44:47;97798.00;;;7.71;56.53
13387;BME280;6763;48.524;9.044;2022-12-07T04:47:12;97799.72;;;7.71;56.67
13387;BME280;6763;48.524;9.044;2022-12-07T04:49:38;97803.16;;;7.70;56.62
13387;BME280;6763;48.524;9.044;2022-12-07T04:52:03;97798.00;;;7.71;56.42
13387;BME280;6763;48.524;9.044;2022-12-07T04:54:29;97798.88;;;7.69;56.32
13387;BME280;6763;48.524;9.044;2022-12-07T04:56:54;97794.59;;;7.68;56.85
13387;BME280;6763;48.524;9.044;2022-12-07T04:59:19;97801.47;;;7.66;56.70
13387;BME280;6763;48.524;9.044;2022-12-07T05:01:45;97787.78;;;7.62;56.95
13387;BME280;6763;48.524;9.044;2022-12-07T05:04:10;97790.34;;;7.62;57.07
13387;BME280;6763;48.524;9.044;2022-12-07T05:06:36;97786.91;;;7.62;57.03
13387;BME280;6763;48.524;9.044;2022-12-07T05:09:04;97786.94;;;7.57;56.75
13387;BME280;6763;48.524;9.044;2022-12-07T05:11:29;97792.13;;;7.54;56.84
13387;BME280;6763;48.524;9.044;2022-12-07T05:14:16;97799.88;;;7.49;56.93
13387;BME280;6763;48.524;9.044;2022-12-07T05:16:42;97787.03;;;7.40;57.03
13387;BME280;6763;48.524;9.044;2022-12-07T05:19:09;97793.94;;;7.38;57.30
13387;BME280;6763;48.524;9.044;2022-12-07T05:21:38;97789.69;;;7.28;56.95
13387;BME280;6763;48.524;9.044;2022-12-07T05:24:06;97779.44;;;7.22;57.14
13387;BME280;6763;48.524;9.044;2022-12-07T05:26:33;97776.06;;;7.16;57.43
13387;BME280;6763;48.524;9.044;2022-12-07T05:28:58;97788.97;;;7.05;57.63
13387;BME280;6763;48.524;9.044;2022-12-07T05:31:25;97783.88;;;6.95;57.66
13387;BME280;6763;48.524;9.044;2022-12-07T05:33:50;97789.91;;;6.89;57.06
13387;BME280;6763;48.524;9.044;2022-12-07T05:36:16;97792.50;;;6.80;57.42
13387;BME280;6763;48.524;9.044;2022-12-07T05:38:41;97795.09;;;6.71;57.29
13387;BME280;6763;48.524;9.044;2022-12-07T05:41:08;97793.44;;;6.64;57.74
13387;BME280;6763;48.524;9.044;2022-12-07T05:43:55;97797.72;;;6.57;57.60
13387;BME280;6763;48.524;9.044;2022-12-07T05:46:21;97797.75;;;6.48;57.27
13387;BME280;6763;48.524;9.044;2022-12-07T05:48:46;97807.19;;;6.39;57.71
13387;BME280;6763;48.524;9.044;2022-12-07T05:51:12;97799.47;;;6.34;58.65
13387;BME280;6763;48.524;9.044;2022-12-07T05:53:37;97804.63;;;6.31;58.44
13387;BME280;6763;48.524;9.044;2022-12-07T05:56:02;97802.06;;;6.27;58.63
13387;BME280;6763;48.524;9.044;2022-12-07T05:58:28;97798.63;;;6.23;58.39
13387;BME280;6763;48.524;9.044;2022-12-07T06:01:12;97794.38;;;6.14;58.32
13387;BME280;6763;48.524;9.044;2022-12-07T06:03:37;97792.69;;;6.09;58.59
13387;BME280;6763;48.524;9.044;2022-12-07T06:06:03;97796.97;;;6.04;57.90
13387;BME280;6763;48.524;9.044;2022-12-07T06:08:28;97779.84;;;5.95;58.48
13387;BME280;6763;48.524;9.044;2022-12-07T06:10:53;97781.53;;;5.92;59.03
13387;BME280;6763;48.524;9.044;2022-12-07T06:13:39;97784.13;;;5.89;59.13
13387;BME280;6763;48.524;9.044;2022-12-07T06:16:04;97780.66;;;5.82;58.89
13387;BME280;6763;48.524;9.044;2022-12-07T06:18:30;97778.94;;;5.74;58.14
13387;BME280;6763;48.524;9.044;2022-12-07T06:20:55;97783.22;;;5.67;58.21
13387;BME280;6763;48.524;9.044;2022-12-07T06:23:20;97780.66;;;5.58;58.17
13387;BME280;6763;48.524;9.044;2022-12-07T06:25:46;97784.06;;;5.58;58.39
13387;BME280;6763;48.524;9.044;2022-12-07T06:28:11;97790.06;;;5.53;58.23
13387;BME280;6763;48.524;9.044;2022-12-07T06:30:36;97784.91;;;5.50;58.03
13387;BME280;6763;48.524;9.044;2022-12-07T06:33:02;97788.34;;;5.46;59.08
13387;BME280;6763;48.524;9.044;2022-12-07T06:35:27;97790.94;;;5.52;58.46
13387;BME280;6763;48.524;9.044;2022-12-07T06:37:52;97805.44;;;5.48;58.51
13387;BME280;6763;48.524;9.044;2022-12-07T06:40:18;97800.31;;;5.41;58.46
13387;BME280;6763;48.524;9.044;2022-12-07T06:42:43;97808.03;;;5.44;59.18
13387;BME280;6763;48.524;9.044;2022-12-07T06:45:09;97810.56;;;5.41;58.52
13387;BME280;6763;48.524;9.044;2022-12-07T06:47:34;97815.69;;;5.38;58.92
13387;BME280;6763;48.524;9.044;2022-12-07T06:49:59;97811.44;;;5.37;58.87
13387;BME280;6763;48.524;9.044;2022-12-07T06:52:25;97804.59;;;5.34;58.82
13387;BME280;6763;48.524;9.044;2022-12-07T06:54:50;97812.28;;;5.39;59.12
13387;BME280;6763;48.524;9.044;2022-12-07T06:57:15;97810.59;;;5.44;59.42
13387;BME280;6763;48.524;9.044;2022-12-07T06:59:41;97818.31;;;5.47;59.11
13387;BME280;6763;48.524;9.044;2022-12-07T07:02:08;97802.88;;;5.53;59.98
13387;BME280;6763;48.524;9.044;2022-12-07T07:04:33;97809.75;;;5.60;59.30
13387;BME280;6763;48.524;9.044;2022-12-07T07:06:59;97815.75;;;5.70;59.63
13387;BME280;6763;48.524;9.044;2022-12-07T07:09:24;97810.59;;;5.68;59.58
13387;BME280;6763;48.524;9.044;2022-12-07T07:11:49;97821.75;;;5.79;59.63
13387;BME280;6763;48.524;9.044;2022-12-07T07:14:15;97827.75;;;5.84;59.94
13387;BME280;6763;48.524;9.044;2022-12-07T07:16:44;97827.78;;;5.87;59.89
13387;BME280;6763;48.524;9.044;2022-12-07T07:19:09;97820.94;;;5.94;59.75
13387;BME280;6763;48.524;9.044;2022-12-07T07:21:36;97830.34;;;6.01;60.16
13387;BME280;6763;48.524;9.044;2022-12-07T07:24:01;97819.22;;;6.00;60.05
13387;BME280;6763;48.524;9.044;2022-12-07T07:26:27;97821.78;;;6.08;60.19
13387;BME280;6763;48.524;9.044;2022-12-07T07:28:52;97818.34;;;6.07;59.88
13387;BME280;6763;48.524;9.044;2022-12-07T07:31:17;97831.22;;;6.16;60.13
13387;BME280;6763;48.524;9.044;2022-12-07T07:33:44;97838.06;;;6.22;59.78
13387;BME280;6763;48.524;9.044;2022-12-07T07:36:09;97835.47;;;6.23;59.95
13387;BME280;6763;48.524;9.044;2022-12-07T07:38:35;97830.34;;;6.25;59.88
13387;BME280;6763;48.524;9.044;2022-12-07T07:41:00;97833.75;;;6.32;60.13
13387;BME280;6763;48.524;9.044;2022-12-07T07:43:26;97833.75;;;6.38;60.35
13387;BME280;6763;48.524;9.044;2022-12-07T07:45:51;97827.75;;;6.42;59.57
13387;BME280;6763;48.524;9.044;2022-12-07T07:48:16;97822.59;;;6.46;60.01
13387;BME280;6763;48.524;9.044;2022-12-07T07:50:42;97832.00;;;6.49;59.63
13387;BME280;6763;48.524;9.044;2022-12-07T07:53:07;97824.28;;;6.52;59.74
13387;BME280;6763;48.524;9.044;2022-12-07T07:55:33;97828.56;;;6.54;59.58
13387;BME280;6763;48.524;9.044;2022-12-07T07:57:58;97825.16;;;6.55;59.89
13387;BME280;6763;48.524;9.044;2022-12-07T08:00:24;97834.56;;;6.64;60.25
13387;BME280;6763;48.524;9.044;2022-12-07T08:02:49;97832.81;;;6.72;59.64
13387;BME280;6763;48.524;9.044;2022-12-07T08:05:15;97836.22;;;6.78;60.22
13387;BME280;6763;48.524;9.044;2022-12-07T08:07:41;97829.34;;;6.90;60.31
13387;BME280;6763;48.524;9.044;2022-12-07T08:10:08;97836.16;;;7.03;60.34
13387;BME280;6763;48.524;9.044;2022-12-07T08:12:43;97835.25;;;7.13;59.84
13387;BME280;6763;48.524;9.044;2022-12-07T08:15:28;97830.94;;;7.16;59.92
13387;BME280;6763;48.524;9.044;2022-12-07T08:17:53;97842.06;;;7.20;59.80
13387;BME280;6763;48.524;9.044;2022-12-07T08:20:19;97842.03;;;7.27;60.18
13387;BME280;6763;48.524;9.044;2022-12-07T08:22:45;97838.56;;;7.36;60.11
13387;BME280;6763;48.524;9.044;2022-12-07T08:25:26;97829.13;;;7.36;59.22
13387;BME280;6763;48.524;9.044;2022-12-07T08:27:52;97836.78;;;7.45;59.93
13387;BME280;6763;48.524;9.044;2022-12-07T08:30:18;97841.00;;;7.59;59.98
13387;BME280;6763;48.524;9.044;2022-12-07T08:32:45;97855.44;;;7.81;60.21
13387;BME280;6763;48.524;9.044;2022-12-07T08:35:10;97856.19;;;7.99;60.11
13387;BME280;6763;48.524;9.044;2022-12-07T08:37:36;97852.63;;;8.16;60.24
13387;BME280;6763;48.524;9.044;2022-12-07T08:40:02;97855.97;;;8.31;59.80
13387;BME280;6763;48.524;9.044;2022-12-07T08:42:28;97850.75;;;8.40;59.65
13387;BME280;6763;48.524;9.044;2022-12-07T08:44:55;97847.16;;;8.55;58.80
13387;BME280;6763;48.524;9.044;2022-12-07T08:47:22;97847.94;;;8.61;58.19
13387;BME280;6763;48.524;9.044;2022-12-07T08:49:49;97843.59;;;8.65;58.46
13387;BME280;6763;48.524;9.044;2022-12-07T08:52:17;97845.22;;;8.77;58.36
13387;BME280;6763;48.524;9.044;2022-12-07T08:54:43;97848.50;;;8.92;58.17
13387;BME280;6763;48.524;9.044;2022-12-07T08:57:09;97843.19;;;9.03;58.58
13387;BME280;6763;48.524;9.044;2022-12-07T08:59:36;97841.38;;;9.12;58.22
13387;BME280;6763;48.524;9.044;2022-12-07T09:02:03;97839.41;;;9.31;57.96
13387;BME280;6763;48.524;9.044;2022-12-07T09:04:29;97845.28;;;9.42;57.37
13387;BME280;6763;48.524;9.044;2022-12-07T09:06:56;97838.31;;;9.49;56.18
13387;BME280;6763;48.524;9.044;2022-12-07T09:09:22;97843.47;;;9.47;54.25
13387;BME280;6763;48.524;9.044;2022-12-07T09:11:47;97844.47;;;9.39;54.12
13387;BME280;6763;48.524;9.044;2022-12-07T09:14:13;97847.84;;;9.42;54.80
13387;BME280;6763;48.524;9.044;2022-12-07T09:16:39;97849.53;;;9.45;55.30
13387;BME280;6763;48.524;9.044;2022-12-07T09:19:04;97854.56;;;9.55;55.53
13387;BME280;6763;48.524;9.044;2022-12-07T09:21:30;97853.56;;;9.65;55.04
13387;BME280;6763;48.524;9.044;2022-12-07T09:23:55;97845.63;;;9.79;55.09
13387;BME280;6763;48.524;9.044;2022-12-07T09:26:21;97852.25;;;9.98;55.22
13387;BME280;6763;48.524;9.044;2022-12-07T09:28:46;97849.41;;;10.12;54.90
13387;BME280;6763;48.524;9.044;2022-12-07T09:31:12;97843.31;;;10.19;52.95
13387;BME280;6763;48.524;9.044;2022-12-07T09:33:37;97850.19;;;10.20;52.29
13387;BME280;6763;48.524;9.044;2022-12-07T09:36:03;97846.69;;;10.24;52.66
13387;BME280;6763;48.524;9.044;2022-12-07T09:38:29;97837.13;;;10.27;53.31
13387;BME280;6763;48.524;9.044;2022-12-07T09:40:55;97845.47;;;10.43;53.05
13387;BME280;6763;48.524;9.044;2022-12-07T09:43:22;97838.47;;;10.49;52.86
13387;BME280;6763;48.524;9.044;2022-12-07T09:45:53;97843.44;;;10.63;52.57
13387;BME280;6763;48.524;9.044;2022-12-07T09:48:23;97832.06;;;10.70;51.76
13387;BME280;6763;48.524;9.044;2022-12-07T09:50:52;97838.94;;;10.73;51.71
13387;BME280;6763;48.524;9.044;2022-12-07T09:53:26;97836.34;;;10.73;51.20
13387;BME280;6763;48.524;9.044;2022-12-07T09:55:53;97820.75;;;10.74;51.51
13387;BME280;6763;48.524;9.044;2022-12-07T09:58:24;97827.38;;;10.90;50.64
13387;BME280;6763;48.524;9.044;2022-12-07T10:01:12;97823.81;;;10.96;50.27
13387;BME280;6763;48.524;9.044;2022-12-07T10:03:40;97821.00;;;11.06;50.43
13387;BME280;6763;48.524;9.044;2022-12-07T10:06:11;97817.28;;;11.19;50.43
13387;BME280;6763;48.524;9.044;2022-12-07T10:08:37;97809.13;;;11.36;50.13
13387;BME280;6763;48.524;9.044;2022-12-07T10:11:06;97808.84;;;11.50;49.45
13387;BME280;6763;48.524;9.044;2022-12-07T10:13:41;97806.94;;;11.59;49.85
13387;BME280;6763;48.524;9.044;2022-12-07T10:16:31;97805.16;;;11.60;48.66
13387;BME280;6763;48.524;9.044;2022-12-07T10:19:22;97792.38;;;11.54;45.43
13387;BME280;6763;48.524;9.044;2022-12-07T10:22:15;97795.19;;;11.42;45.58
13387;BME280;6763;48.524;9.044;2022-12-07T10:24:42;97794.50;;;11.34;46.68
13387;BME280;6763;48.524;9.044;2022-12-07T10:27:31;97796.16;;;11.38;45.64
13387;BME280;6763;48.524;9.044;2022-12-07T10:29:58;97794.22;;;11.47;46.10
13387;BME280;6763;48.524;9.044;2022-12-07T10:32:27;97793.97;;;11.58;46.17
13387;BME280;6763;48.524;9.044;2022-12-07T10:37:41;97788.16;;;11.48;43.23
13387;BME280;6763;48.524;9.044;2022-12-07T10:40:35;97790.19;;;11.34;42.72
13387;BME280;6763;48.524;9.044;2022-12-07T10:48:25;97778.31;;;11.26;43.71
13387;BME280;6763;48.524;9.044;2022-12-07T10:59:44;97762.44;;;11.39;42.76
13387;BME280;6763;48.524;9.044;2022-12-07T11:10:22;97749.56;;;11.74;42.32
13387;BME280;6763;48.524;9.044;2022-12-07T11:21:06;97744.03;;;11.88;41.76
13387;BME280;6763;48.524;9.044;2022-12-07T11:35:03;97724.25;;;11.84;41.60
13387;BME280;6763;48.524;9.044;2022-12-07T11:37:34;97728.44;;;11.90;41.69
13387;BME280;6763;48.524;9.044;2022-12-07T11:40:04;97719.84;;;11.88;42.16
13387;BME280;6763;48.524;9.044;2022-12-07T11:42:37;97718.06;;;11.90;41.65
13387;BME280;6763;48.524;9.044;2022-12-07T11:45:19;97718.00;;;11.93;41.40
13387;BME280;6763;48.524;9.044;2022-12-07T11:47:51;97711.09;;;11.93;41.69
13387;BME280;6763;48.524;9.044;2022-12-07T11:50:39;97705.13;;;11.88;41.34
13387;BME280;6763;48.524;9.044;2022-12-07T11:55:42;97706.97;;;11.85;41.46
13387;BME280;6763;48.524;9.044;2022-12-07T11:58:34;97702.63;;;11.85;41.34
13387;BME280;6763;48.524;9.044;2022-12-07T12:03:41;97691.13;;;11.95;41.44
13387;BME280;6763;48.524;9.044;2022-12-07T12:06:08;97687.81;;;11.90;41.29
13387;BME280;6763;48.524;9.044;2022-12-07T12:08:39;97686.91;;;11.91;41.39
13387;BME280;6763;48.524;9.044;2022-12-07T12:13:51;97682.44;;;11.98;40.97
13387;BME280;6763;48.524;9.044;2022-12-07T12:16:50;97681.63;;;11.94;41.40
13387;BME280;6763;48.524;9.044;2022-12-07T12:22:18;97681.50;;;12.00;41.16
13387;BME280;6763;48.524;9.044;2022-12-07T12:24:48;97676.13;;;12.06;41.46
13387;BME280;6763;48.524;9.044;2022-12-07T12:27:30;97666.44;;;12.13;41.39
13387;BME280;6763;48.524;9.044;2022-12-07T12:29:59;97666.44;;;12.13;40.81
13387;BME280;6763;48.524;9.044;2022-12-07T12:32:42;97669.97;;;12.10;41.51
13387;BME280;6763;48.524;9.044;2022-12-07T12:35:36;97665.66;;;12.11;41.52
13387;BME280;6763;48.524;9.044;2022-12-07T12:38:25;97667.31;;;12.12;40.72
13387;BME280;6763;48.524;9.044;2022-12-07T12:40:53;97661.25;;;12.13;41.16
13387;BME280;6763;48.524;9.044;2022-12-07T12:43:48;97657.78;;;12.14;41.24
13387;BME280;6763;48.524;9.044;2022-12-07T12:49:13;97658.88;;;12.05;41.21
13387;BME280;6763;48.524;9.044;2022-12-07T12:51:42;97672.72;;;12.04;41.10
13387;BME280;6763;48.524;9.044;2022-12-07T12:54:15;97660.56;;;12.06;41.58
13387;BME280;6763;48.524;9.044;2022-12-07T12:59:41;97651.09;;;12.05;41.74
13387;BME280;6763;48.524;9.044;2022-12-07T13:10:42;97641.84;;;11.95;41.82
13387;BME280;6763;48.524;9.044;2022-12-07T13:15:48;97634.00;;;11.98;41.33
13387;BME280;6763;48.524;9.044;2022-12-07T13:21:01;97631.56;;;11.91;41.79
13387;BME280;6763;48.524;9.044;2022-12-07T13:28:52;97618.31;;;12.03;41.89
13387;BME280;6763;48.524;9.044;2022-12-07T13:33:52;97621.75;;;12.03;41.85
13387;BME280;6763;48.524;9.044;2022-12-07T13:36:25;97626.94;;;12.03;42.04
13387;BME280;6763;48.524;9.044;2022-12-07T13:41:21;97627.03;;;12.00;42.28
13387;BME280;6763;48.524;9.044;2022-12-07T13:43:53;97617.59;;;11.96;41.96
13387;BME280;6763;48.524;9.044;2022-12-07T13:46:25;97616.00;;;11.92;42.19
13387;BME280;6763;48.524;9.044;2022-12-07T13:48:52;97612.69;;;11.87;42.50
13387;BME280;6763;48.524;9.044;2022-12-07T13:51:24;97614.47;;;11.85;42.44
13387;BME280;6763;48.524;9.044;2022-12-07T13:53:56;97609.38;;;11.80;41.95
13387;BME280;6763;48.524;9.044;2022-12-07T13:56:30;97607.72;;;11.78;42.41
13387;BME280;6763;48.524;9.044;2022-12-07T13:58:57;97611.22;;;11.77;42.52
13387;BME280;6763;48.524;9.044;2022-12-07T14:01:24;97607.84;;;11.73;42.59
13387;BME280;6763;48.524;9.044;2022-12-07T14:03:50;97609.72;;;11.68;42.79
13387;BME280;6763;48.524;9.044;2022-12-07T14:06:27;97612.34;;;11.65;42.92
13387;BME280;6763;48.524;9.044;2022-12-07T14:09:07;97605.63;;;11.58;43.13
13387;BME280;6763;48.524;9.044;2022-12-07T14:11:33;97608.34;;;11.54;42.93
13387;BME280;6763;48.524;9.044;2022-12-07T14:14:00;97610.94;;;11.54;43.22
13387;BME280;6763;48.524;9.044;2022-12-07T14:18:53;97612.69;;;11.52;43.38
13387;BME280;6763;48.524;9.044;2022-12-07T14:21:21;97610.03;;;11.55;43.03
13387;BME280;6763;48.524;9.044;2022-12-07T14:24:09;97610.03;;;11.55;43.20
13387;BME280;6763;48.524;9.044;2022-12-07T14:26:35;97601.38;;;11.54;43.21
13387;BME280;6763;48.524;9.044;2022-12-07T14:31:45;97603.34;;;11.46;43.01
13387;BME280;6763;48.524;9.044;2022-12-07T14:34:13;97604.28;;;11.44;43.07
13387;BME280;6763;48.524;9.044;2022-12-07T14:36:38;97609.59;;;11.38;43.27
13387;BME280;6763;48.524;9.044;2022-12-07T14:39:04;97608.06;;;11.29;43.38
13387;BME280;6763;48.524;9.044;2022-12-07T14:41:29;97609.06;;;11.25;43.70
13387;BME280;6763;48.524;9.044;2022-12-07T14:44:13;97610.06;;;11.18;43.55
13387;BME280;6763;48.524;9.044;2022-12-07T14:46:39;97607.59;;;11.13;44.09
13387;BME280;6763;48.524;9.044;2022-12-07T14:49:04;97606.84;;;11.08;44.06
13387;BME280;6763;48.524;9.044;2022-12-07T14:51:30;97601.81;;;11.02;44.49
13387;BME280;6763;48.524;9.044;2022-12-07T14:53:56;97608.88;;;10.96;44.90
13387;BME280;6763;48.524;9.044;2022-12-07T14:56:21;97609.84;;;10.92;44.38
13387;BME280;6763;48.524;9.044;2022-12-07T14:58:46;97611.63;;;10.88;44.89
13387;BME280;6763;48.524;9.044;2022-12-07T15:01:13;97609.16;;;10.84;45.22
13387;BME280;6763;48.524;9.044;2022-12-07T15:03:39;97604.91;;;10.80;45.15
13387;BME280;6763;48.524;9.044;2022-12-07T15:06:05;97610.09;;;10.80;45.24
13387;BME280;6763;48.524;9.044;2022-12-07T15:08:32;97612.75;;;10.77;45.08
13387;BME280;6763;48.524;9.044;2022-12-07T15:10:57;97616.31;;;10.73;44.94
13387;BME280;6763;48.524;9.044;2022-12-07T15:13:23;97617.22;;;10.70;45.36
13387;BME280;6763;48.524;9.044;2022-12-07T15:16:10;97615.66;;;10.63;45.56
13387;BME280;6763;48.524;9.044;2022-12-07T15:18:37;97610.56;;;10.60;45.35
13387;BME280;6763;48.524;9.044;2022-12-07T15:21:03;97610.59;;;10.57;45.69